createdAt,value
2023-05-05T00:00:13.158Z,19.65
2023-05-05T00:02:40.429Z,18.42
2023-05-05T00:05:08.765Z,18.52
2023-05-05T00:07:36.485Z,17.75
2023-05-05T00:10:03.846Z,14.57
2023-05-05T00:12:31.004Z,18.40
2023-05-05T00:14:57.924Z,19.40
2023-05-05T00:17:24.816Z,18.17
2023-05-05T00:19:51.644Z,23.85
2023-05-05T00:22:18.511Z,16.73
2023-05-05T00:24:45.605Z,17.75
2023-05-05T00:27:12.445Z,18.23
2023-05-05T00:29:39.284Z,20.23
2023-05-05T00:32:06.353Z,17.38
2023-05-05T00:34:33.179Z,20.90
2023-05-05T00:37:00.078Z,23.10
2023-05-05T00:39:27.180Z,18.45
2023-05-05T00:41:54.312Z,19.58
2023-05-05T00:44:37.054Z,24.23
2023-05-05T00:47:04.255Z,18.33
2023-05-05T00:49:31.770Z,18.27
2023-05-05T00:51:59.517Z,20.65
2023-05-05T00:54:27.900Z,20.85
2023-05-05T00:56:55.042Z,21.00
2023-05-05T00:59:22.880Z,18.77
2023-05-05T01:01:50.835Z,20.05
2023-05-05T01:04:18.032Z,20.70
2023-05-05T01:06:57.577Z,21.20
2023-05-05T01:09:36.867Z,22.70
2023-05-05T01:12:40.420Z,16.77
2023-05-05T01:15:22.866Z,25.60
2023-05-05T01:20:38.367Z,28.20
2023-05-05T01:23:14.562Z,28.17
2023-05-05T01:26:02.720Z,32.00
2023-05-05T01:29:03.021Z,27.10
2023-05-05T01:31:35.641Z,30.88
2023-05-05T01:34:07.589Z,25.23
2023-05-05T01:39:12.703Z,25.63
2023-05-05T01:41:46.759Z,27.10
2023-05-05T01:44:16.664Z,22.50
2023-05-05T01:46:43.466Z,22.05
2023-05-05T01:49:13.033Z,21.85
2023-05-05T01:51:41.497Z,20.80
2023-05-05T01:54:09.572Z,20.88
2023-05-05T01:56:40.121Z,20.13
2023-05-05T01:59:07.956Z,23.73
2023-05-05T02:01:39.481Z,16.45
2023-05-05T02:04:10.044Z,17.92
2023-05-05T02:06:38.003Z,21.30
2023-05-05T02:09:05.856Z,17.50
2023-05-05T02:11:33.258Z,17.98
2023-05-05T02:14:02.220Z,15.10
2023-05-05T02:16:31.157Z,44.25
2023-05-05T02:19:01.821Z,22.50
2023-05-05T02:21:28.726Z,17.95
2023-05-05T02:23:55.713Z,16.80
2023-05-05T02:26:24.730Z,18.70
2023-05-05T02:28:58.146Z,16.83
2023-05-05T02:31:27.933Z,18.20
2023-05-05T02:33:57.969Z,14.68
2023-05-05T02:36:29.690Z,17.23
2023-05-05T02:39:03.387Z,15.45
2023-05-05T02:41:32.945Z,17.20
2023-05-05T02:44:02.359Z,16.02
2023-05-05T02:46:29.611Z,18.10
2023-05-05T02:48:56.531Z,17.42
2023-05-05T02:51:23.721Z,19.88
2023-05-05T02:53:52.325Z,17.88
2023-05-05T02:56:38.797Z,17.17
2023-05-05T02:59:34.319Z,18.40
2023-05-05T03:02:11.523Z,17.80
2023-05-05T03:04:49.169Z,14.73
2023-05-05T03:07:45.289Z,16.13
2023-05-05T03:10:21.768Z,13.15
2023-05-05T03:12:59.224Z,13.45
2023-05-05T03:15:31.227Z,15.60
2023-05-05T03:17:59.558Z,18.38
2023-05-05T03:20:26.750Z,16.73
2023-05-05T03:22:55.157Z,12.95
2023-05-05T03:25:22.364Z,21.20
2023-05-05T03:27:49.454Z,14.43
2023-05-05T03:30:16.155Z,14.60
2023-05-05T03:32:42.934Z,19.30
2023-05-05T03:35:09.947Z,16.40
2023-05-05T03:37:37.182Z,18.98
2023-05-05T03:40:04.066Z,16.98
2023-05-05T03:42:31.152Z,20.38
2023-05-05T03:44:58.146Z,14.80
2023-05-05T03:47:25.096Z,17.33
2023-05-05T03:49:52.549Z,21.13
2023-05-05T03:52:19.396Z,18.90
2023-05-05T03:54:46.217Z,17.90
2023-05-05T03:57:13.120Z,16.63
2023-05-05T03:59:39.919Z,20.63
2023-05-05T04:02:06.779Z,19.88
2023-05-05T04:04:33.782Z,15.50
2023-05-05T04:07:01.042Z,16.85
2023-05-05T04:09:28.064Z,18.50
2023-05-05T04:11:54.854Z,22.13
2023-05-05T04:14:22.313Z,17.90
2023-05-05T04:16:49.163Z,15.68
2023-05-05T04:19:15.990Z,16.15
2023-05-05T04:21:42.814Z,23.20
2023-05-05T04:24:10.106Z,16.70
2023-05-05T04:26:37.449Z,13.57
2023-05-05T04:29:04.613Z,18.02
2023-05-05T04:31:32.165Z,16.60
2023-05-05T04:33:59.103Z,16.02
2023-05-05T04:36:26.253Z,13.45
2023-05-05T04:38:53.452Z,17.00
2023-05-05T04:41:20.256Z,18.83
2023-05-05T04:43:47.195Z,19.42
2023-05-05T04:46:14.133Z,16.88
2023-05-05T04:48:41.285Z,15.43
2023-05-05T04:51:08.286Z,15.77
2023-05-05T04:53:35.115Z,15.82
2023-05-05T04:56:01.935Z,17.70
2023-05-05T04:58:29.529Z,23.00
2023-05-05T05:00:56.404Z,17.58
2023-05-05T05:03:23.598Z,16.02
2023-05-05T05:05:50.777Z,22.42
2023-05-05T05:08:18.399Z,17.65
2023-05-05T05:10:45.666Z,21.00
2023-05-05T05:13:13.063Z,17.90
2023-05-05T05:15:40.648Z,20.65
2023-05-05T05:18:07.518Z,18.95
2023-05-05T05:20:34.936Z,16.15
2023-05-05T05:23:04.486Z,21.35
2023-05-05T05:25:31.704Z,20.80
2023-05-05T05:28:09.435Z,18.05
2023-05-05T05:30:37.249Z,19.27
2023-05-05T05:33:04.126Z,18.25
2023-05-05T05:35:31.589Z,19.65
2023-05-05T05:37:58.644Z,22.23
2023-05-05T05:40:25.496Z,21.05
2023-05-05T05:42:52.231Z,17.98
2023-05-05T05:45:19.045Z,22.65
2023-05-05T05:47:45.946Z,21.33
2023-05-05T05:50:12.904Z,22.85
2023-05-05T05:52:39.677Z,19.55
2023-05-05T05:55:07.616Z,24.40
2023-05-05T05:57:34.708Z,24.30
2023-05-05T06:00:05.422Z,24.80
2023-05-05T06:02:32.766Z,27.17
2023-05-05T06:04:59.826Z,32.13
2023-05-05T06:07:26.799Z,31.83
2023-05-05T06:09:53.972Z,27.75
2023-05-05T06:12:21.078Z,24.90
2023-05-05T06:14:48.047Z,32.28
2023-05-05T06:17:14.813Z,25.55
2023-05-05T06:19:41.717Z,28.98
2023-05-05T06:22:08.402Z,28.48
2023-05-05T06:24:35.355Z,28.52
2023-05-05T06:27:05.695Z,30.42
2023-05-05T06:29:32.560Z,30.60
2023-05-05T06:32:01.156Z,26.92
2023-05-05T06:34:28.190Z,30.38
2023-05-05T06:36:55.081Z,31.55
2023-05-05T06:39:21.775Z,31.00
2023-05-05T06:41:48.563Z,29.65
2023-05-05T06:44:15.371Z,36.10
2023-05-05T06:46:43.681Z,32.55
2023-05-05T06:49:10.735Z,31.27
2023-05-05T06:51:37.369Z,28.20
2023-05-05T06:54:04.515Z,30.77
2023-05-05T06:56:31.800Z,32.60
2023-05-05T06:58:58.898Z,26.52
2023-05-05T07:01:25.744Z,29.45
2023-05-05T07:03:52.670Z,28.05
2023-05-05T07:06:19.544Z,34.38
2023-05-05T07:08:46.355Z,29.30
2023-05-05T07:11:13.217Z,25.10
2023-05-05T07:13:40.070Z,26.17
2023-05-05T07:16:07.162Z,28.40
2023-05-05T07:18:34.029Z,34.47
2023-05-05T07:21:01.891Z,26.13
2023-05-05T07:23:28.958Z,29.30
2023-05-05T07:25:56.048Z,26.17
2023-05-05T07:28:22.835Z,23.08
2023-05-05T07:30:49.642Z,28.98
2023-05-05T07:33:16.493Z,25.10
2023-05-05T07:35:45.056Z,20.63
2023-05-05T07:38:16.929Z,20.20
2023-05-05T07:40:45.182Z,21.10
2023-05-05T07:43:12.031Z,23.95
2023-05-05T07:45:38.932Z,21.35
2023-05-05T07:48:07.119Z,25.13
2023-05-05T07:50:33.936Z,19.15
2023-05-05T07:53:10.895Z,25.50
2023-05-05T07:55:41.382Z,21.15
2023-05-05T07:58:08.703Z,20.90
2023-05-05T08:00:35.622Z,22.13
2023-05-05T08:03:02.533Z,16.38
2023-05-05T08:05:29.282Z,23.52
2023-05-05T08:07:56.776Z,21.52
2023-05-05T08:10:25.037Z,21.60
2023-05-05T08:12:51.779Z,19.95
2023-05-05T08:15:18.493Z,16.63
2023-05-05T08:17:52.931Z,18.88
2023-05-05T08:20:21.090Z,18.92
2023-05-05T08:22:48.144Z,18.35
2023-05-05T08:25:15.338Z,20.83
2023-05-05T08:27:43.234Z,19.83
2023-05-05T08:30:10.997Z,13.50
2023-05-05T08:32:38.510Z,14.27
2023-05-05T08:35:07.031Z,12.43
2023-05-05T08:37:34.529Z,14.32
2023-05-05T08:40:01.633Z,13.20
2023-05-05T08:42:38.175Z,15.13
2023-05-05T08:45:07.575Z,16.38
2023-05-05T08:47:35.702Z,17.77
2023-05-05T08:50:03.495Z,12.80
2023-05-05T08:52:39.482Z,11.60
2023-05-05T08:55:15.721Z,13.40
2023-05-05T08:57:53.190Z,13.50
2023-05-05T09:00:20.905Z,10.82
2023-05-05T09:02:48.363Z,11.60
2023-05-05T09:05:16.743Z,9.48
2023-05-05T09:07:44.612Z,10.60
2023-05-05T09:10:12.117Z,10.40
2023-05-05T09:12:42.886Z,14.68
2023-05-05T09:15:11.815Z,12.23
2023-05-05T09:17:41.038Z,17.63
2023-05-05T09:20:13.273Z,17.88
2023-05-05T09:22:47.555Z,15.68
2023-05-05T09:25:16.474Z,24.45
2023-05-05T09:27:46.387Z,13.38
2023-05-05T09:30:19.382Z,20.92
2023-05-05T09:32:51.478Z,18.73
2023-05-05T09:35:19.513Z,13.95
2023-05-05T09:37:47.151Z,12.65
2023-05-05T09:40:16.887Z,11.63
2023-05-05T09:42:45.421Z,13.45
2023-05-05T09:45:18.211Z,15.07
2023-05-05T09:47:46.660Z,12.63
2023-05-05T09:50:16.065Z,12.98
2023-05-05T09:52:43.391Z,16.00
2023-05-05T09:55:19.438Z,15.90
2023-05-05T09:57:47.598Z,17.15
2023-05-05T10:00:14.816Z,16.08
2023-05-05T10:02:42.116Z,14.85
2023-05-05T10:05:14.602Z,18.55
2023-05-05T10:07:43.205Z,19.15
2023-05-05T10:10:16.205Z,15.82
2023-05-05T10:12:43.770Z,17.92
2023-05-05T10:15:12.354Z,14.80
2023-05-05T10:20:21.550Z,17.70
2023-05-05T10:22:54.078Z,8.38
2023-05-05T10:25:36.564Z,8.15
2023-05-05T10:28:06.803Z,7.50
2023-05-05T10:30:39.552Z,7.43
2023-05-05T10:33:30.792Z,10.05
2023-05-05T10:36:02.596Z,9.52
2023-05-05T10:38:34.217Z,9.18
2023-05-05T10:41:04.356Z,9.77
2023-05-05T10:43:31.979Z,7.93
2023-05-05T10:45:59.663Z,13.18
2023-05-05T10:49:13.077Z,11.55
2023-05-05T10:51:54.956Z,13.85
2023-05-05T10:54:35.780Z,7.77
2023-05-05T10:57:08.322Z,6.25
2023-05-05T10:59:38.191Z,2.75
2023-05-05T11:02:25.655Z,6.45
2023-05-05T11:05:16.754Z,6.97
2023-05-05T11:07:45.287Z,6.75
2023-05-05T11:10:13.987Z,6.10
2023-05-05T11:12:59.397Z,12.35
2023-05-05T11:15:29.480Z,11.43
2023-05-05T11:18:07.884Z,9.90
2023-05-05T11:20:40.968Z,9.82
2023-05-05T11:23:08.226Z,10.32
2023-05-05T11:25:35.577Z,16.02
2023-05-05T11:28:09.768Z,15.15
2023-05-05T11:30:57.236Z,15.40
2023-05-05T11:33:32.614Z,15.38
2023-05-05T11:36:03.397Z,12.68
2023-05-05T11:38:53.331Z,18.85
2023-05-05T11:41:47.804Z,14.25
2023-05-05T11:44:33.961Z,11.82
2023-05-05T11:47:06.906Z,11.20
2023-05-05T11:49:38.066Z,11.15
2023-05-05T11:52:07.683Z,14.88
2023-05-05T11:54:40.739Z,14.55
2023-05-05T11:57:08.962Z,11.13
2023-05-05T11:59:49.668Z,7.93
2023-05-05T12:02:17.887Z,14.95
2023-05-05T12:04:45.128Z,12.68
2023-05-05T12:07:22.096Z,10.95
2023-05-05T12:09:50.138Z,12.13
2023-05-05T12:12:17.320Z,11.60
2023-05-05T12:14:52.570Z,10.02
2023-05-05T12:17:24.545Z,11.23
2023-05-05T12:19:55.724Z,14.30
2023-05-05T12:22:27.480Z,18.88
2023-05-05T12:24:58.972Z,15.98
2023-05-05T12:27:27.306Z,10.57
2023-05-05T12:29:55.556Z,10.60
2023-05-05T12:32:28.317Z,14.18
2023-05-05T12:34:57.932Z,12.93
2023-05-05T12:37:27.054Z,13.50
2023-05-05T12:39:55.288Z,18.00
2023-05-05T12:42:23.076Z,11.13
2023-05-05T12:44:50.747Z,15.95
2023-05-05T12:47:33.892Z,11.43
2023-05-05T12:50:03.405Z,15.00
2023-05-05T12:53:01.214Z,13.07
2023-05-05T12:55:46.143Z,11.00
2023-05-05T12:58:13.024Z,12.23
2023-05-05T13:00:42.182Z,12.77
2023-05-05T13:03:19.675Z,10.98
2023-05-05T13:05:50.352Z,10.13
2023-05-05T13:08:18.933Z,13.30
2023-05-05T13:10:58.474Z,8.98
2023-05-05T13:13:25.266Z,9.77
2023-05-05T13:15:53.635Z,11.00
2023-05-05T13:18:20.848Z,9.63
2023-05-05T13:20:48.358Z,9.07
2023-05-05T13:23:15.158Z,7.82
2023-05-05T13:25:41.927Z,11.55
2023-05-05T13:28:08.802Z,10.13
2023-05-05T13:30:35.725Z,10.05
2023-05-05T13:33:04.575Z,8.18
2023-05-05T13:35:32.841Z,9.45
2023-05-05T13:37:59.810Z,14.85
2023-05-05T13:40:26.964Z,7.82
2023-05-05T13:42:54.091Z,9.27
2023-05-05T13:45:21.699Z,6.90
2023-05-05T13:47:48.727Z,7.10
2023-05-05T13:50:15.566Z,5.35
2023-05-05T13:52:42.343Z,11.32
2023-05-05T13:55:09.825Z,7.20
2023-05-05T13:57:37.294Z,9.10
2023-05-05T14:00:04.579Z,9.07
2023-05-05T14:02:31.680Z,8.05
2023-05-05T14:04:58.637Z,7.72
2023-05-05T14:07:25.542Z,6.05
2023-05-05T14:09:52.534Z,6.65
2023-05-05T14:12:19.376Z,6.53
2023-05-05T14:14:46.629Z,7.65
2023-05-05T14:17:13.578Z,7.30
2023-05-05T14:19:40.747Z,9.25
2023-05-05T14:22:07.513Z,18.25
2023-05-05T14:24:35.587Z,8.45
2023-05-05T14:27:04.411Z,7.53
2023-05-05T14:29:31.421Z,8.00
2023-05-05T14:31:58.390Z,4.65
2023-05-05T14:34:25.363Z,5.18
2023-05-05T14:36:52.321Z,6.72
2023-05-05T14:39:19.839Z,8.90
2023-05-05T14:41:47.174Z,5.50
2023-05-05T14:44:13.969Z,8.27
2023-05-05T14:46:44.682Z,7.40
2023-05-05T14:49:12.821Z,5.55
2023-05-05T14:51:39.621Z,6.55
2023-05-05T14:54:14.246Z,12.07
2023-05-05T14:56:50.462Z,5.18
2023-05-05T14:59:17.251Z,5.50
2023-05-05T15:01:44.303Z,5.05
2023-05-05T15:04:11.015Z,6.22
2023-05-05T15:06:37.914Z,4.32
2023-05-05T15:09:04.874Z,6.55
2023-05-05T15:11:31.710Z,4.07
2023-05-05T15:14:00.223Z,4.30
2023-05-05T15:16:27.062Z,4.13
2023-05-05T15:18:54.230Z,5.78
2023-05-05T15:21:21.386Z,5.93
2023-05-05T15:23:48.200Z,7.38
2023-05-05T15:26:15.399Z,8.60
2023-05-05T15:28:43.216Z,5.55
2023-05-05T15:31:10.159Z,3.35
2023-05-05T15:33:37.086Z,3.67
2023-05-05T15:36:03.931Z,6.07
2023-05-05T15:38:32.233Z,4.15
2023-05-05T15:40:59.769Z,4.68
2023-05-05T15:43:26.860Z,3.97
2023-05-05T15:45:54.149Z,5.05
2023-05-05T15:48:21.456Z,7.85
2023-05-05T15:50:48.122Z,5.57
2023-05-05T15:53:15.121Z,11.85
2023-05-05T15:55:41.899Z,3.85
2023-05-05T15:58:08.838Z,3.60
2023-05-05T16:00:35.601Z,4.80
2023-05-05T16:03:02.483Z,6.03
2023-05-05T16:05:29.583Z,10.13
2023-05-05T16:07:56.940Z,2.95
2023-05-05T16:10:23.839Z,4.90
2023-05-05T16:12:52.213Z,5.18
2023-05-05T16:15:19.092Z,3.63
2023-05-05T16:17:45.898Z,4.25
2023-05-05T16:20:13.806Z,5.28
2023-05-05T16:22:40.861Z,3.45
2023-05-05T16:25:08.274Z,2.95
2023-05-05T16:27:36.254Z,2.53
2023-05-05T16:30:03.236Z,1.95
2023-05-05T16:32:30.049Z,3.30
2023-05-05T16:34:57.046Z,3.92
2023-05-05T16:37:25.088Z,3.63
2023-05-05T16:39:51.948Z,3.50
2023-05-05T16:42:19.655Z,4.25
2023-05-05T16:44:46.507Z,2.92
2023-05-05T16:47:14.861Z,4.32
2023-05-05T16:49:41.574Z,4.80
2023-05-05T16:52:08.460Z,3.03
2023-05-05T16:54:35.170Z,1.95
2023-05-05T16:57:03.813Z,3.85
2023-05-05T16:59:31.689Z,3.92
2023-05-05T17:01:58.617Z,3.50
2023-05-05T17:04:26.169Z,3.70
2023-05-05T17:06:55.287Z,3.35
2023-05-05T17:09:27.849Z,2.90
2023-05-05T17:11:54.705Z,4.43
2023-05-05T17:14:21.756Z,4.70
2023-05-05T17:16:48.664Z,3.10
2023-05-05T17:19:15.545Z,3.90
2023-05-05T17:21:44.518Z,3.75
2023-05-05T17:24:11.707Z,3.67
2023-05-05T17:26:40.019Z,5.40
2023-05-05T17:29:07.126Z,6.70
2023-05-05T17:31:38.536Z,3.15
2023-05-05T17:34:05.456Z,3.88
2023-05-05T17:36:33.540Z,3.17
2023-05-05T17:39:00.579Z,4.38
2023-05-05T17:41:27.421Z,3.97
2023-05-05T17:43:54.263Z,4.68
2023-05-05T17:46:22.072Z,4.82
2023-05-05T17:48:49.047Z,5.28
2023-05-05T17:51:15.954Z,5.22
2023-05-05T17:53:43.936Z,5.93
2023-05-05T17:56:10.881Z,5.05
2023-05-05T17:58:37.740Z,3.97
2023-05-05T18:01:07.915Z,4.40
2023-05-05T18:03:40.077Z,4.50
2023-05-05T18:06:07.900Z,6.82
2023-05-05T18:08:34.726Z,5.13
2023-05-05T18:11:01.870Z,4.22
2023-05-05T18:13:28.896Z,5.35
2023-05-05T18:15:55.652Z,5.65
2023-05-05T18:18:22.528Z,4.72
2023-05-05T18:20:51.296Z,4.68
2023-05-05T18:23:18.661Z,5.88
2023-05-05T18:25:46.728Z,5.82
2023-05-05T18:28:13.691Z,5.68
2023-05-05T18:30:40.787Z,6.20
2023-05-05T18:33:07.597Z,8.38
2023-05-05T18:35:34.705Z,6.78
2023-05-05T18:38:01.758Z,4.75
2023-05-05T18:40:28.528Z,8.50
2023-05-05T18:42:56.076Z,6.80
2023-05-05T18:45:23.039Z,5.05
2023-05-05T18:47:50.246Z,4.65
2023-05-05T18:50:17.340Z,4.35
2023-05-05T18:52:44.575Z,10.32
2023-05-05T18:55:11.777Z,4.35
2023-05-05T18:57:39.109Z,7.32
2023-05-05T19:00:06.512Z,4.68
2023-05-05T19:02:33.703Z,5.72
2023-05-05T19:05:00.571Z,7.35
2023-05-05T19:07:35.380Z,5.65
2023-05-05T19:10:04.817Z,6.57
2023-05-05T19:12:31.878Z,5.15
2023-05-05T19:14:58.817Z,6.65
2023-05-05T19:17:26.057Z,7.45
2023-05-05T19:19:53.292Z,5.18
2023-05-05T19:22:23.072Z,9.90
2023-05-05T19:24:50.187Z,4.20
2023-05-05T19:27:17.375Z,8.13
2023-05-05T19:29:44.686Z,5.55
2023-05-05T19:32:12.842Z,6.18
2023-05-05T19:34:40.752Z,5.93
2023-05-05T19:37:07.623Z,5.68
2023-05-05T19:39:34.525Z,5.97
2023-05-05T19:42:01.791Z,4.80
2023-05-05T19:44:29.910Z,4.18
2023-05-05T19:46:59.159Z,5.10
2023-05-05T19:49:28.455Z,6.45
2023-05-05T19:51:56.391Z,8.35
2023-05-05T19:54:24.964Z,6.25
2023-05-05T19:56:52.031Z,8.43
2023-05-05T19:59:18.954Z,7.65
2023-05-05T20:01:45.982Z,11.77
2023-05-05T20:04:13.045Z,13.25
2023-05-05T20:06:40.134Z,11.23
2023-05-05T20:09:07.703Z,12.82
2023-05-05T20:11:35.779Z,9.60
2023-05-05T20:14:02.723Z,7.55
2023-05-05T20:16:29.600Z,9.65
2023-05-05T20:18:56.615Z,10.55
2023-05-05T20:21:23.559Z,5.40
2023-05-05T20:23:50.514Z,5.65
2023-05-05T20:26:17.399Z,9.77
2023-05-05T20:28:45.839Z,5.40
2023-05-05T20:31:14.893Z,9.10
2023-05-05T20:33:41.760Z,5.13
2023-05-05T20:36:08.664Z,3.80
2023-05-05T20:38:35.713Z,5.28
2023-05-05T20:41:02.602Z,15.85
2023-05-05T20:43:29.407Z,6.20
2023-05-05T20:45:56.243Z,5.95
2023-05-05T20:48:23.135Z,8.30
2023-05-05T20:50:51.261Z,8.50
2023-05-05T20:53:19.310Z,6.28
2023-05-05T20:55:46.495Z,7.97
2023-05-05T20:58:13.371Z,8.07
2023-05-05T21:00:40.539Z,6.07
2023-05-05T21:03:07.288Z,7.15
2023-05-05T21:05:34.419Z,10.60
2023-05-05T21:08:01.510Z,8.60
2023-05-05T21:10:29.546Z,27.02
2023-05-05T21:12:56.693Z,9.98
2023-05-05T21:15:23.795Z,6.53
2023-05-05T21:17:51.204Z,3.28
2023-05-05T21:20:18.948Z,6.78
2023-05-05T21:22:46.203Z,4.90
2023-05-05T21:25:18.706Z,7.20
2023-05-05T21:27:47.411Z,8.70
2023-05-05T21:30:14.588Z,10.43
2023-05-05T21:32:43.772Z,10.60
2023-05-05T21:35:15.209Z,11.70
2023-05-05T21:37:42.345Z,7.07
2023-05-05T21:40:13.936Z,79.13
2023-05-05T21:42:42.443Z,16.33
2023-05-05T21:45:11.964Z,18.13
2023-05-05T21:47:39.084Z,3.35
2023-05-05T21:50:06.630Z,36.08
2023-05-05T21:52:34.949Z,9.95
2023-05-05T21:55:02.037Z,4.70
2023-05-05T21:57:29.245Z,6.32
2023-05-05T21:59:56.304Z,6.10
2023-05-05T22:02:23.360Z,5.47
2023-05-05T22:04:53.312Z,5.00
2023-05-05T22:07:20.152Z,2.42
2023-05-05T22:09:47.304Z,2.95
2023-05-05T22:12:14.246Z,3.28
2023-05-05T22:14:41.043Z,1.98
2023-05-05T22:17:08.276Z,1.83
2023-05-05T22:19:37.480Z,1.52
2023-05-05T22:22:06.911Z,18.15
2023-05-05T22:24:33.691Z,17.42
2023-05-05T22:27:01.896Z,2.25
2023-05-05T22:29:28.758Z,2.55
2023-05-05T22:31:57.341Z,2.97
2023-05-05T22:34:25.918Z,2.65
2023-05-05T22:36:52.963Z,2.90
2023-05-05T22:39:20.202Z,2.88
2023-05-05T22:41:47.361Z,2.38
2023-05-05T22:44:15.477Z,2.30
2023-05-05T22:46:42.275Z,2.85
2023-05-05T22:49:09.677Z,6.75
2023-05-05T22:51:39.699Z,5.78
2023-05-05T22:54:06.501Z,2.67
2023-05-05T22:56:33.590Z,2.67
2023-05-05T22:59:00.399Z,2.88
2023-05-05T23:01:27.389Z,4.15
2023-05-05T23:03:54.474Z,2.65
2023-05-05T23:06:32.335Z,5.10
2023-05-05T23:08:59.868Z,9.10
2023-05-05T23:11:30.404Z,18.98
2023-05-05T23:13:57.319Z,30.08
2023-05-05T23:16:24.115Z,11.88
2023-05-05T23:19:00.371Z,5.57
2023-05-05T23:21:32.158Z,2.80
2023-05-05T23:24:03.152Z,3.40
2023-05-05T23:26:30.967Z,3.75
2023-05-05T23:29:02.287Z,6.43
2023-05-05T23:31:30.450Z,4.10
2023-05-05T23:33:57.303Z,5.18
2023-05-05T23:36:24.045Z,4.80
2023-05-05T23:38:51.169Z,7.18
2023-05-05T23:41:19.209Z,5.15
2023-05-05T23:43:46.271Z,5.25
2023-05-05T23:46:13.640Z,3.05
2023-05-05T23:48:40.558Z,2.92
2023-05-05T23:51:07.349Z,8.68
2023-05-05T23:53:34.193Z,22.15
2023-05-05T23:56:01.187Z,20.13
2023-05-05T23:58:28.016Z,17.67
